createdAt,value
2023-04-06T00:02:06.363Z,141.10
2023-04-06T00:04:34.263Z,174.30
2023-04-06T00:07:02.073Z,236.50
2023-04-06T00:09:29.848Z,232.20
2023-04-06T00:11:58.879Z,290.00
2023-04-06T00:14:26.658Z,279.60
2023-04-06T00:16:55.065Z,179.70
2023-04-06T00:19:22.971Z,128.40
2023-04-06T00:21:50.904Z,117.60
2023-04-06T00:24:18.778Z,108.00
2023-04-06T00:26:46.590Z,102.80
2023-04-06T00:29:14.419Z,99.70
2023-04-06T00:31:42.242Z,102.60
2023-04-06T00:34:11.292Z,124.70
2023-04-06T00:36:39.466Z,131.80
2023-04-06T00:39:07.494Z,134.20
2023-04-06T00:41:35.611Z,110.20
2023-04-06T00:44:03.398Z,112.20
2023-04-06T00:46:31.359Z,107.00
2023-04-06T00:48:59.218Z,105.80
2023-04-06T00:51:27.733Z,115.50
2023-04-06T00:53:55.653Z,108.80
2023-04-06T00:56:24.744Z,110.80
2023-04-06T00:58:53.283Z,99.00
2023-04-06T01:01:21.218Z,86.70
2023-04-06T01:03:51.084Z,83.70
2023-04-06T01:06:18.904Z,83.00
2023-04-06T01:08:46.659Z,82.10
2023-04-06T01:11:14.419Z,101.00
2023-04-06T01:13:42.223Z,169.60
2023-04-06T01:16:11.024Z,163.60
2023-04-06T01:18:39.633Z,109.70
2023-04-06T01:21:09.677Z,82.50
2023-04-06T01:23:37.526Z,81.90
2023-04-06T01:26:05.721Z,89.70
2023-04-06T01:28:33.561Z,86.60
2023-04-06T01:31:01.399Z,102.90
2023-04-06T01:33:29.287Z,106.80
2023-04-06T01:35:57.208Z,92.30
2023-04-06T01:38:25.510Z,92.70
2023-04-06T01:40:54.518Z,102.00
2023-04-06T01:43:22.997Z,103.60
2023-04-06T01:45:50.860Z,104.90
2023-04-06T01:48:18.667Z,106.10
2023-04-06T01:50:46.503Z,109.30
2023-04-06T01:53:14.398Z,122.30
2023-04-06T01:55:42.256Z,118.60
2023-04-06T01:58:10.060Z,112.80
2023-04-06T02:00:38.009Z,108.40
2023-04-06T02:03:05.994Z,119.40
2023-04-06T02:05:39.230Z,113.10
2023-04-06T02:08:07.452Z,105.50
2023-04-06T02:10:36.070Z,103.70
2023-04-06T02:13:03.942Z,107.60
2023-04-06T02:15:31.741Z,104.30
2023-04-06T02:18:01.150Z,101.70
2023-04-06T02:20:29.001Z,104.70
2023-04-06T02:23:01.000Z,103.10
2023-04-06T02:25:29.118Z,111.60
2023-04-06T02:27:56.955Z,127.20
2023-04-06T02:30:24.696Z,109.30
2023-04-06T02:32:52.577Z,92.60
2023-04-06T02:35:20.558Z,89.20
2023-04-06T02:37:48.314Z,104.30
2023-04-06T02:40:16.157Z,106.80
2023-04-06T02:42:44.047Z,126.80
2023-04-06T02:45:11.923Z,85.10
2023-04-06T02:47:39.835Z,64.70
2023-04-06T02:50:08.010Z,71.60
2023-04-06T02:52:36.112Z,75.30
2023-04-06T02:55:04.376Z,73.90
2023-04-06T02:57:32.205Z,72.30
2023-04-06T02:59:59.980Z,85.60
2023-04-06T03:02:27.910Z,69.90
2023-04-06T03:04:56.019Z,65.70
2023-04-06T03:07:23.889Z,72.10
2023-04-06T03:09:51.800Z,70.50
2023-04-06T03:12:19.606Z,68.70
2023-04-06T03:14:47.510Z,63.80
2023-04-06T03:17:15.715Z,68.80
2023-04-06T03:19:43.716Z,64.50
2023-04-06T03:22:11.708Z,55.50
2023-04-06T03:24:39.565Z,70.50
2023-04-06T03:27:07.450Z,62.30
2023-04-06T03:29:35.338Z,64.60
2023-04-06T03:32:03.161Z,78.10
2023-04-06T03:34:31.083Z,75.80
2023-04-06T03:37:09.280Z,77.60
2023-04-06T03:39:38.011Z,72.40
2023-04-06T03:42:05.918Z,65.90
2023-04-06T03:44:33.659Z,77.00
2023-04-06T03:47:02.018Z,70.00
2023-04-06T03:49:29.950Z,67.70
2023-04-06T03:51:57.964Z,57.70
2023-04-06T03:54:26.014Z,57.50
2023-04-06T03:56:53.831Z,63.90
2023-04-06T03:59:21.728Z,57.80
2023-04-06T04:01:49.604Z,63.90
2023-04-06T04:04:17.751Z,56.70
2023-04-06T04:06:45.591Z,61.90
2023-04-06T04:09:13.542Z,53.20
2023-04-06T04:11:41.455Z,63.40
2023-04-06T04:14:09.428Z,69.20
2023-04-06T04:16:37.413Z,75.50
2023-04-06T04:19:05.511Z,95.70
2023-04-06T04:21:33.463Z,105.60
2023-04-06T04:24:01.431Z,124.50
2023-04-06T04:26:29.222Z,157.20
2023-04-06T04:28:57.036Z,187.00
2023-04-06T04:31:24.832Z,198.20
2023-04-06T04:33:52.577Z,210.20
2023-04-06T04:36:20.731Z,193.30
2023-04-06T04:38:48.743Z,195.00
2023-04-06T04:41:16.553Z,206.40
2023-04-06T04:43:44.955Z,207.70
2023-04-06T04:46:12.854Z,199.80
2023-04-06T04:48:40.855Z,242.10
2023-04-06T04:51:08.873Z,228.70
2023-04-06T04:53:36.824Z,203.50
2023-04-06T04:56:05.098Z,195.40
2023-04-06T04:58:32.913Z,158.40
2023-04-06T05:01:01.428Z,156.50
2023-04-06T05:03:29.818Z,145.90
2023-04-06T05:05:57.752Z,136.30
2023-04-06T05:08:25.989Z,136.90
2023-04-06T05:10:53.820Z,153.90
2023-04-06T05:13:21.765Z,144.90
2023-04-06T05:15:49.697Z,143.60
2023-04-06T05:18:17.836Z,137.30
2023-04-06T05:20:46.231Z,136.30
2023-04-06T05:23:14.753Z,141.90
2023-04-06T05:25:43.001Z,143.60
2023-04-06T05:28:11.192Z,131.20
2023-04-06T05:30:39.013Z,133.40
2023-04-06T05:33:07.156Z,140.80
2023-04-06T05:35:35.051Z,138.60
2023-04-06T05:38:02.858Z,139.50
2023-04-06T05:40:30.709Z,136.40
2023-04-06T05:42:58.605Z,109.10
2023-04-06T05:45:26.677Z,103.20
2023-04-06T05:47:54.554Z,104.40
2023-04-06T05:50:23.508Z,93.40
2023-04-06T05:52:51.426Z,86.70
2023-04-06T05:55:19.833Z,77.90
2023-04-06T05:57:51.332Z,74.40
2023-04-06T06:00:20.186Z,72.20
2023-04-06T06:02:48.196Z,63.90
2023-04-06T06:05:16.669Z,57.90
2023-04-06T06:07:44.932Z,69.60
2023-04-06T06:10:13.150Z,64.20
2023-04-06T06:12:41.102Z,69.60
2023-04-06T06:15:09.993Z,71.90
2023-04-06T06:17:39.175Z,68.20
2023-04-06T06:20:08.885Z,62.10
2023-04-06T06:22:37.589Z,64.90
2023-04-06T06:25:05.626Z,60.60
2023-04-06T06:27:33.757Z,58.40
2023-04-06T06:30:02.744Z,56.00
2023-04-06T06:32:30.702Z,67.10
2023-04-06T06:34:58.582Z,63.20
2023-04-06T06:37:27.467Z,62.60
2023-04-06T06:39:56.546Z,67.00
2023-04-06T06:42:24.406Z,74.50
2023-04-06T06:44:52.872Z,50.70
2023-04-06T06:47:20.921Z,61.20
2023-04-06T06:49:48.660Z,65.40
2023-04-06T06:52:16.464Z,51.10
2023-04-06T06:54:44.719Z,64.80
2023-04-06T06:57:12.679Z,60.80
2023-04-06T06:59:40.672Z,54.30
2023-04-06T07:02:08.452Z,55.00
2023-04-06T07:04:36.528Z,51.80
2023-04-06T07:07:04.658Z,54.10
2023-04-06T07:09:32.620Z,54.40
2023-04-06T07:12:02.018Z,55.90
2023-04-06T07:14:29.810Z,47.30
2023-04-06T07:16:57.743Z,57.30
2023-04-06T07:19:25.711Z,43.00
2023-04-06T07:21:53.788Z,45.10
2023-04-06T07:24:21.618Z,42.90
2023-04-06T07:26:49.410Z,35.40
2023-04-06T07:29:17.314Z,37.50
2023-04-06T07:31:45.115Z,32.00
2023-04-06T07:34:13.175Z,28.90
2023-04-06T07:36:41.095Z,29.10
2023-04-06T07:39:08.962Z,35.00
2023-04-06T07:41:36.919Z,27.10
2023-04-06T07:44:05.785Z,23.20
2023-04-06T07:46:33.815Z,20.10
2023-04-06T07:49:04.435Z,19.40
2023-04-06T07:51:32.430Z,21.80
2023-04-06T07:54:00.888Z,25.50
2023-04-06T07:56:28.726Z,33.40
2023-04-06T07:58:59.871Z,24.30
2023-04-06T08:01:29.490Z,25.30
2023-04-06T08:03:58.147Z,19.90
2023-04-06T08:06:26.255Z,17.50
2023-04-06T08:08:54.368Z,17.50
2023-04-06T08:11:22.453Z,21.40
2023-04-06T08:13:50.546Z,19.70
2023-04-06T08:16:18.605Z,20.30
2023-04-06T08:18:46.418Z,21.30
2023-04-06T08:21:14.264Z,20.70
2023-04-06T08:23:41.995Z,19.50
2023-04-06T08:26:10.721Z,18.20
2023-04-06T08:28:39.220Z,24.20
2023-04-06T08:31:07.255Z,22.80
2023-04-06T08:33:40.242Z,21.60
2023-04-06T08:36:16.084Z,18.20
2023-04-06T08:38:44.093Z,20.10
2023-04-06T08:41:13.619Z,19.00
2023-04-06T08:43:48.355Z,18.20
2023-04-06T08:46:17.229Z,17.70
2023-04-06T08:48:51.161Z,14.40
2023-04-06T08:51:19.913Z,19.00
2023-04-06T08:53:49.662Z,14.40
2023-04-06T08:56:17.714Z,14.40
2023-04-06T08:58:46.219Z,16.70
2023-04-06T09:01:15.235Z,16.20
2023-04-06T09:03:43.672Z,14.50
2023-04-06T09:06:12.919Z,14.60
2023-04-06T09:08:42.144Z,15.30
2023-04-06T09:11:10.675Z,13.90
2023-04-06T09:13:50.624Z,14.00
2023-04-06T09:16:19.461Z,22.70
2023-04-06T09:18:48.587Z,12.60
2023-04-06T09:21:22.627Z,12.70
2023-04-06T09:24:02.943Z,16.40
2023-04-06T09:26:31.341Z,12.00
2023-04-06T09:29:01.319Z,15.20
2023-04-06T09:31:34.305Z,10.40
2023-04-06T09:34:02.911Z,12.20
2023-04-06T09:36:36.329Z,11.90
2023-04-06T09:39:05.843Z,13.30
2023-04-06T09:41:37.565Z,13.50
2023-04-06T09:44:08.540Z,10.80
2023-04-06T09:46:57.675Z,12.90
2023-04-06T09:49:29.100Z,13.40
2023-04-06T09:52:03.991Z,11.70
2023-04-06T09:54:33.067Z,14.00
2023-04-06T09:57:11.285Z,11.40
2023-04-06T10:00:12.676Z,10.00
2023-04-06T10:02:51.745Z,10.90
2023-04-06T10:05:42.225Z,13.80
2023-04-06T10:08:15.223Z,14.40
2023-04-06T10:10:43.743Z,11.50
2023-04-06T10:13:13.219Z,17.00
2023-04-06T10:15:41.820Z,11.60
2023-04-06T10:18:10.015Z,13.80
2023-04-06T10:20:56.953Z,13.70
2023-04-06T10:23:46.452Z,12.00
2023-04-06T10:26:17.524Z,13.60
2023-04-06T10:28:47.700Z,11.50
2023-04-06T10:31:16.115Z,10.90
2023-04-06T10:33:55.582Z,15.20
2023-04-06T10:36:27.537Z,12.50
2023-04-06T10:39:04.339Z,10.00
2023-04-06T10:41:37.529Z,11.00
2023-04-06T10:44:05.942Z,13.80
2023-04-06T10:46:34.947Z,17.60
2023-04-06T10:49:15.868Z,11.90
2023-04-06T10:51:43.685Z,11.20
2023-04-06T10:54:12.526Z,16.40
2023-04-06T10:56:40.702Z,18.20
2023-04-06T10:59:08.951Z,14.70
2023-04-06T11:01:37.333Z,20.10
2023-04-06T11:04:05.843Z,12.20
2023-04-06T11:06:33.797Z,10.00
2023-04-06T11:09:01.845Z,13.20
2023-04-06T11:11:30.259Z,13.30
2023-04-06T11:14:00.601Z,13.90
2023-04-06T11:16:31.839Z,11.90
2023-04-06T11:19:05.314Z,27.90
2023-04-06T11:21:40.493Z,45.70
2023-04-06T11:24:20.606Z,14.00
2023-04-06T11:26:54.902Z,11.90
2023-04-06T11:29:28.514Z,13.10
2023-04-06T11:32:03.188Z,11.90
2023-04-06T11:34:37.927Z,21.00
2023-04-06T11:37:10.291Z,12.60
2023-04-06T11:39:52.845Z,11.70
2023-04-06T11:42:30.417Z,16.70
2023-04-06T11:44:59.555Z,12.60
2023-04-06T11:47:38.900Z,11.80
2023-04-06T11:50:15.361Z,13.00
2023-04-06T11:52:43.963Z,16.90
2023-04-06T11:55:17.418Z,12.20
2023-04-06T11:57:48.269Z,10.20
2023-04-06T12:00:17.066Z,10.60
2023-04-06T12:02:49.787Z,8.60
2023-04-06T12:05:17.952Z,10.70
2023-04-06T12:07:46.035Z,8.90
2023-04-06T12:10:13.890Z,9.70
2023-04-06T12:12:41.751Z,8.00
2023-04-06T12:15:10.422Z,9.50
2023-04-06T12:17:38.466Z,22.10
2023-04-06T12:20:22.053Z,14.00
2023-04-06T12:22:53.026Z,10.80
2023-04-06T12:25:21.160Z,10.70
2023-04-06T12:27:49.063Z,10.50
2023-04-06T12:30:17.171Z,13.00
2023-04-06T12:32:45.101Z,11.40
2023-04-06T12:35:16.709Z,8.70
2023-04-06T12:37:44.702Z,10.80
2023-04-06T12:40:12.951Z,8.70
2023-04-06T12:42:42.403Z,9.00
2023-04-06T12:45:11.154Z,8.30
2023-04-06T12:47:39.289Z,11.30
2023-04-06T12:50:07.926Z,9.30
2023-04-06T12:52:36.536Z,13.50
2023-04-06T12:55:06.273Z,10.10
2023-04-06T12:57:34.242Z,11.70
2023-04-06T13:00:02.741Z,9.50
2023-04-06T13:02:32.172Z,12.40
2023-04-06T13:05:00.343Z,9.00
2023-04-06T13:07:28.840Z,9.40
2023-04-06T13:09:56.880Z,10.40
2023-04-06T13:12:25.154Z,10.50
2023-04-06T13:14:53.640Z,9.30
2023-04-06T13:17:22.217Z,9.10
2023-04-06T13:19:50.531Z,14.10
2023-04-06T13:22:18.479Z,11.30
2023-04-06T13:24:46.674Z,10.30
2023-04-06T13:27:14.627Z,12.20
2023-04-06T13:29:42.679Z,23.30
2023-04-06T13:32:11.528Z,11.60
2023-04-06T13:34:41.600Z,13.30
2023-04-06T13:37:09.593Z,10.80
2023-04-06T13:39:37.595Z,11.50
2023-04-06T13:42:05.602Z,11.40
2023-04-06T13:44:33.929Z,9.80
2023-04-06T13:47:02.180Z,9.30
2023-04-06T13:49:29.978Z,9.90
2023-04-06T13:51:57.898Z,9.10
2023-04-06T13:54:27.600Z,11.20
2023-04-06T13:56:56.101Z,10.10
2023-04-06T13:59:24.048Z,10.70
2023-04-06T14:01:52.042Z,9.90
2023-04-06T14:04:19.886Z,10.50
2023-04-06T14:06:47.792Z,9.80
2023-04-06T14:09:15.659Z,11.30
2023-04-06T14:11:43.534Z,14.60
2023-04-06T14:14:11.627Z,14.60
2023-04-06T14:16:39.705Z,10.50
2023-04-06T14:19:07.933Z,11.10
2023-04-06T14:21:35.850Z,14.30
2023-04-06T14:24:04.094Z,11.90
2023-04-06T14:26:33.084Z,10.40
2023-04-06T14:29:01.374Z,28.60
2023-04-06T14:31:29.753Z,12.20
2023-04-06T14:33:57.998Z,10.90
2023-04-06T14:36:28.587Z,12.90
2023-04-06T14:38:59.814Z,15.90
2023-04-06T14:41:28.012Z,19.90
2023-04-06T14:43:56.418Z,16.00
2023-04-06T14:46:24.395Z,13.40
2023-04-06T14:49:04.804Z,13.00
2023-04-06T14:51:37.275Z,18.00
2023-04-06T14:54:05.508Z,52.20
2023-04-06T14:56:33.504Z,59.30
2023-04-06T14:59:04.657Z,17.40
2023-04-06T15:01:37.193Z,18.00
2023-04-06T15:04:06.020Z,42.40
2023-04-06T15:06:34.079Z,30.00
2023-04-06T15:09:01.867Z,26.90
2023-04-06T15:11:29.808Z,23.80
2023-04-06T15:13:57.785Z,38.60
2023-04-06T15:16:26.434Z,16.60
2023-04-06T15:18:54.409Z,14.10
2023-04-06T15:21:22.462Z,12.30
2023-04-06T15:23:51.502Z,14.00
2023-04-06T15:26:19.593Z,29.60
2023-04-06T15:28:47.676Z,13.30
2023-04-06T15:31:36.844Z,17.50
2023-04-06T15:34:09.139Z,14.60
2023-04-06T15:36:37.408Z,15.70
2023-04-06T15:39:09.618Z,16.60
2023-04-06T15:41:41.104Z,20.90
2023-04-06T15:44:09.183Z,18.50
2023-04-06T15:46:37.029Z,14.30
2023-04-06T15:49:04.981Z,15.30
2023-04-06T15:51:33.883Z,13.30
2023-04-06T15:54:01.818Z,12.30
2023-04-06T15:56:29.677Z,12.00
2023-04-06T15:58:58.228Z,14.10
2023-04-06T16:01:26.457Z,13.00
2023-04-06T16:03:54.559Z,13.10
2023-04-06T16:06:24.644Z,13.20
2023-04-06T16:08:53.095Z,14.10
2023-04-06T16:11:21.834Z,18.60
2023-04-06T16:13:55.138Z,17.00
2023-04-06T16:16:30.968Z,13.80
2023-04-06T16:18:59.062Z,17.60
2023-04-06T16:21:31.565Z,14.60
2023-04-06T16:26:28.700Z,18.50
2023-04-06T16:28:57.306Z,19.90
2023-04-06T16:31:25.675Z,15.70
2023-04-06T16:33:57.178Z,34.10
2023-04-06T16:36:29.765Z,19.30
2023-04-06T16:38:59.175Z,27.10
2023-04-06T16:41:27.938Z,27.40
2023-04-06T16:43:57.490Z,25.00
2023-04-06T16:46:36.078Z,28.20
2023-04-06T16:49:05.850Z,25.60
2023-04-06T16:51:33.990Z,23.30
2023-04-06T16:54:02.719Z,27.60
2023-04-06T16:56:31.961Z,35.30
2023-04-06T16:58:59.859Z,20.60
2023-04-06T17:01:29.731Z,22.10
2023-04-06T17:03:57.822Z,26.30
2023-04-06T17:06:27.727Z,31.40
2023-04-06T17:08:55.890Z,22.70
2023-04-06T17:11:28.581Z,46.80
2023-04-06T17:14:00.766Z,55.10
2023-04-06T17:16:29.282Z,46.40
2023-04-06T17:18:58.140Z,54.10
2023-04-06T17:21:26.351Z,31.90
2023-04-06T17:23:54.580Z,25.30
2023-04-06T17:26:22.342Z,26.00
2023-04-06T17:28:50.270Z,31.70
2023-04-06T17:31:18.359Z,33.60
2023-04-06T17:33:46.533Z,29.30
2023-04-06T17:36:14.735Z,31.70
2023-04-06T17:38:44.325Z,35.00
2023-04-06T17:41:14.014Z,40.80
2023-04-06T17:43:42.232Z,28.80
2023-04-06T17:46:10.292Z,33.30
2023-04-06T17:48:38.190Z,26.30
2023-04-06T17:51:08.964Z,35.90
2023-04-06T17:53:37.277Z,38.50
2023-04-06T17:56:05.616Z,43.30
2023-04-06T17:58:33.888Z,39.60
2023-04-06T18:01:11.685Z,38.20
2023-04-06T18:03:40.143Z,55.40
2023-04-06T18:06:15.864Z,70.60
2023-04-06T18:08:44.460Z,68.70
2023-04-06T18:11:18.597Z,62.90
2023-04-06T18:13:46.852Z,58.50
2023-04-06T18:16:17.482Z,58.60
2023-04-06T18:18:45.899Z,49.30
2023-04-06T18:21:14.722Z,48.80
2023-04-06T18:23:43.267Z,55.90
2023-04-06T18:26:21.449Z,80.90
2023-04-06T18:28:52.612Z,83.50
2023-04-06T18:31:21.990Z,88.40
2023-04-06T18:33:52.921Z,88.30
2023-04-06T18:36:22.541Z,81.30
2023-04-06T18:38:50.942Z,56.00
2023-04-06T18:41:20.737Z,47.20
2023-04-06T18:43:49.671Z,47.60
2023-04-06T18:46:20.280Z,65.20
2023-04-06T18:48:48.535Z,75.00
2023-04-06T18:51:16.977Z,64.90
2023-04-06T18:53:45.132Z,48.80
2023-04-06T18:56:19.073Z,41.80
2023-04-06T18:58:49.084Z,51.40
2023-04-06T19:01:25.866Z,60.20
2023-04-06T19:03:55.189Z,53.40
2023-04-06T19:06:24.788Z,73.80
2023-04-06T19:08:53.525Z,78.30
2023-04-06T19:11:23.363Z,110.50
2023-04-06T19:13:51.395Z,82.50
2023-04-06T19:16:19.398Z,71.00
2023-04-06T19:18:47.324Z,77.40
2023-04-06T19:21:20.514Z,74.10
2023-04-06T19:23:51.156Z,74.60
2023-04-06T19:26:27.901Z,67.80
2023-04-06T19:28:58.257Z,72.50
2023-04-06T19:31:28.979Z,73.70
2023-04-06T19:33:57.375Z,79.40
2023-04-06T19:36:26.203Z,96.00
2023-04-06T19:38:55.164Z,81.00
2023-04-06T19:41:24.242Z,77.80
2023-04-06T19:43:52.300Z,75.30
2023-04-06T19:46:21.645Z,71.10
2023-04-06T19:48:49.974Z,57.50
2023-04-06T19:51:17.985Z,49.40
2023-04-06T19:53:45.934Z,56.30
2023-04-06T19:56:16.328Z,55.20
2023-04-06T19:58:44.477Z,51.70
2023-04-06T20:01:15.527Z,49.80
2023-04-06T20:03:43.939Z,50.30
2023-04-06T20:06:13.246Z,49.60
2023-04-06T20:08:44.473Z,48.80
2023-04-06T20:11:14.220Z,45.40
2023-04-06T20:13:57.510Z,44.70
2023-04-06T20:16:31.492Z,45.10
2023-04-06T20:19:10.113Z,43.90
2023-04-06T20:21:41.511Z,43.30
2023-04-06T20:24:14.308Z,41.50
2023-04-06T20:26:45.851Z,36.80
2023-04-06T20:29:17.329Z,36.20
2023-04-06T20:31:53.520Z,30.50
2023-04-06T20:34:24.509Z,29.00
2023-04-06T20:36:52.918Z,33.30
2023-04-06T20:39:21.054Z,47.20
2023-04-06T20:41:49.149Z,63.90
2023-04-06T20:44:18.336Z,77.70
2023-04-06T20:46:48.931Z,94.20
2023-04-06T20:49:18.425Z,171.90
2023-04-06T20:51:46.358Z,241.30
2023-04-06T20:54:14.244Z,214.00
2023-04-06T20:56:42.081Z,185.40
2023-04-06T20:59:10.944Z,167.40
2023-04-06T21:01:44.208Z,101.20
2023-04-06T21:04:12.735Z,91.70
2023-04-06T21:06:43.851Z,104.50
2023-04-06T21:09:11.830Z,120.70
2023-04-06T21:11:39.881Z,107.40
2023-04-06T21:14:07.924Z,117.80
2023-04-06T21:16:36.730Z,107.20
2023-04-06T21:19:04.628Z,93.50
2023-04-06T21:21:37.226Z,90.90
2023-04-06T21:24:11.784Z,76.90
2023-04-06T21:26:39.887Z,75.60
2023-04-06T21:29:07.915Z,68.00
2023-04-06T21:31:41.224Z,81.80
2023-04-06T21:34:13.185Z,75.40
2023-04-06T21:36:42.140Z,93.70
2023-04-06T21:39:10.390Z,94.60
2023-04-06T21:41:40.454Z,101.30
2023-04-06T21:44:08.465Z,161.00
2023-04-06T21:46:36.488Z,169.70
2023-04-06T21:49:04.413Z,112.30
2023-04-06T21:51:37.024Z,63.80
2023-04-06T21:54:05.487Z,37.50
2023-04-06T21:56:33.823Z,36.70
2023-04-06T21:59:01.737Z,38.10
2023-04-06T22:01:30.023Z,33.40
2023-04-06T22:03:58.264Z,31.70
2023-04-06T22:06:26.697Z,32.80
2023-04-06T22:08:54.681Z,44.30
2023-04-06T22:11:22.597Z,33.00
2023-04-06T22:13:50.506Z,28.10
2023-04-06T22:16:18.735Z,33.70
2023-04-06T22:18:46.917Z,27.70
2023-04-06T22:21:14.872Z,24.60
2023-04-06T22:23:42.913Z,32.90
2023-04-06T22:26:12.229Z,19.80
2023-04-06T22:28:40.030Z,16.40
2023-04-06T22:31:08.532Z,16.90
2023-04-06T22:33:36.409Z,19.70
2023-04-06T22:36:04.756Z,17.70
2023-04-06T22:38:32.684Z,17.80
2023-04-06T22:41:00.590Z,18.60
2023-04-06T22:43:28.488Z,18.00
2023-04-06T22:45:57.197Z,21.80
2023-04-06T22:48:25.238Z,16.60
2023-04-06T22:50:53.190Z,17.20
2023-04-06T22:53:21.249Z,18.10
2023-04-06T22:55:49.136Z,21.60
2023-04-06T22:58:17.187Z,21.60
2023-04-06T23:00:44.971Z,17.10
2023-04-06T23:03:12.859Z,19.70
2023-04-06T23:05:40.723Z,24.80
2023-04-06T23:08:08.701Z,19.00
2023-04-06T23:10:38.663Z,18.00
2023-04-06T23:13:06.432Z,20.80
2023-04-06T23:15:34.226Z,16.90
2023-04-06T23:18:02.433Z,18.60
2023-04-06T23:20:30.305Z,23.70
2023-04-06T23:22:58.209Z,25.70
2023-04-06T23:25:26.263Z,32.40
2023-04-06T23:27:54.269Z,42.80
2023-04-06T23:30:22.357Z,22.00
2023-04-06T23:32:50.489Z,12.50
2023-04-06T23:35:18.563Z,14.40
2023-04-06T23:37:46.651Z,13.10
2023-04-06T23:40:14.641Z,16.20
2023-04-06T23:42:42.645Z,12.00
2023-04-06T23:45:10.900Z,14.80
2023-04-06T23:47:38.770Z,13.30
2023-04-06T23:50:07.503Z,14.50
2023-04-06T23:52:35.513Z,19.70
2023-04-06T23:55:03.806Z,20.00
2023-04-06T23:57:31.665Z,14.30
